createdAt,value
2023-05-18T00:02:16.192Z,57.22
2023-05-18T00:04:44.176Z,57.15
2023-05-18T00:07:13.194Z,57.43
2023-05-18T00:09:41.490Z,57.89
2023-05-18T00:12:10.055Z,58.02
2023-05-18T00:14:37.716Z,58.20
2023-05-18T00:17:05.308Z,58.31
2023-05-18T00:19:33.364Z,58.35
2023-05-18T00:22:02.310Z,58.58
2023-05-18T00:24:30.078Z,58.68
2023-05-18T00:26:57.546Z,58.52
2023-05-18T00:29:24.974Z,58.82
2023-05-18T00:31:52.468Z,58.72
2023-05-18T00:34:20.053Z,58.79
2023-05-18T00:36:47.446Z,58.92
2023-05-18T00:39:14.883Z,59.09
2023-05-18T00:41:42.260Z,59.21
2023-05-18T00:44:09.810Z,59.46
2023-05-18T00:46:37.490Z,59.48
2023-05-18T00:49:04.948Z,59.83
2023-05-18T00:51:32.829Z,60.01
2023-05-18T00:54:00.666Z,60.03
2023-05-18T00:56:28.708Z,60.01
2023-05-18T00:58:57.278Z,60.19
2023-05-18T01:01:28.852Z,59.97
2023-05-18T01:03:57.781Z,60.57
2023-05-18T01:06:25.714Z,60.92
2023-05-18T01:08:54.023Z,61.25
2023-05-18T01:11:51.071Z,61.52
2023-05-18T01:15:03.868Z,61.72
2023-05-18T01:18:05.356Z,61.98
2023-05-18T01:20:46.559Z,62.36
2023-05-18T01:23:52.964Z,62.59
2023-05-18T01:26:37.884Z,62.94
2023-05-18T01:29:07.554Z,63.07
2023-05-18T01:31:36.707Z,63.21
2023-05-18T01:34:04.219Z,63.40
2023-05-18T01:36:32.744Z,63.61
2023-05-18T01:39:01.946Z,64.02
2023-05-18T01:41:30.494Z,64.27
2023-05-18T01:44:22.195Z,64.45
2023-05-18T01:47:12.685Z,64.61
2023-05-18T01:49:51.747Z,64.61
2023-05-18T01:52:21.478Z,64.65
2023-05-18T01:54:51.259Z,64.61
2023-05-18T01:57:18.954Z,64.66
2023-05-18T01:59:46.349Z,64.71
2023-05-18T02:02:13.953Z,64.75
2023-05-18T02:04:41.572Z,64.79
2023-05-18T02:07:09.188Z,64.93
2023-05-18T02:09:36.643Z,65.08
2023-05-18T02:12:04.377Z,65.00
2023-05-18T02:14:33.799Z,65.37
2023-05-18T02:17:01.904Z,65.38
2023-05-18T02:19:31.112Z,65.57
2023-05-18T02:21:58.798Z,65.48
2023-05-18T02:24:26.612Z,65.67
2023-05-18T02:26:54.176Z,65.78
2023-05-18T02:29:21.696Z,65.88
2023-05-18T02:31:49.237Z,66.12
2023-05-18T02:34:17.273Z,66.41
2023-05-18T02:36:46.218Z,66.68
2023-05-18T02:39:13.817Z,66.72
2023-05-18T02:41:41.352Z,67.08
2023-05-18T02:44:08.948Z,67.49
2023-05-18T02:46:36.611Z,67.25
2023-05-18T02:49:06.407Z,67.41
2023-05-18T02:51:34.471Z,67.47
2023-05-18T02:54:02.619Z,67.41
2023-05-18T02:56:32.912Z,66.84
2023-05-18T02:59:23.069Z,66.41
2023-05-18T03:01:50.971Z,67.24
2023-05-18T03:04:18.490Z,67.18
2023-05-18T03:06:53.126Z,67.39
2023-05-18T03:09:23.129Z,67.36
2023-05-18T03:11:53.553Z,67.67
2023-05-18T03:14:21.239Z,67.56
2023-05-18T03:16:53.815Z,67.54
2023-05-18T03:19:22.522Z,67.68
2023-05-18T03:21:50.346Z,68.40
2023-05-18T03:24:17.911Z,68.39
2023-05-18T03:26:48.727Z,68.99
2023-05-18T03:29:16.571Z,68.29
2023-05-18T03:31:44.487Z,67.68
2023-05-18T03:34:13.642Z,67.61
2023-05-18T03:36:42.555Z,67.14
2023-05-18T03:39:11.170Z,68.20
2023-05-18T03:41:38.860Z,68.47
2023-05-18T03:44:06.307Z,68.51
2023-05-18T03:46:34.065Z,68.60
2023-05-18T03:49:03.483Z,68.30
2023-05-18T03:51:37.340Z,68.31
2023-05-18T03:54:05.094Z,67.94
2023-05-18T03:56:33.031Z,67.83
2023-05-18T03:59:00.738Z,68.04
2023-05-18T04:01:32.790Z,68.11
2023-05-18T04:04:00.846Z,68.08
2023-05-18T04:06:28.564Z,67.35
2023-05-18T04:08:56.326Z,67.36
2023-05-18T04:11:26.128Z,67.82
2023-05-18T04:13:53.624Z,67.83
2023-05-18T04:16:22.099Z,67.27
2023-05-18T04:18:50.125Z,67.15
2023-05-18T04:21:19.444Z,67.86
2023-05-18T04:23:47.353Z,67.91
2023-05-18T04:26:20.035Z,67.47
2023-05-18T04:28:47.743Z,66.71
2023-05-18T04:31:17.905Z,66.34
2023-05-18T04:33:47.414Z,65.40
2023-05-18T04:36:15.173Z,65.45
2023-05-18T04:38:43.006Z,65.76
2023-05-18T04:41:10.624Z,65.60
2023-05-18T04:43:38.672Z,64.88
2023-05-18T04:46:07.441Z,64.52
2023-05-18T04:48:36.461Z,64.58
2023-05-18T04:51:05.036Z,64.32
2023-05-18T04:53:38.890Z,63.93
2023-05-18T04:56:07.183Z,63.82
2023-05-18T04:58:35.764Z,64.18
2023-05-18T05:01:03.438Z,64.12
2023-05-18T05:03:31.463Z,64.10
2023-05-18T05:05:59.434Z,64.00
2023-05-18T05:08:27.084Z,63.55
2023-05-18T05:10:54.654Z,63.29
2023-05-18T05:13:22.694Z,62.58
2023-05-18T05:15:51.377Z,62.46
2023-05-18T05:18:20.268Z,61.74
2023-05-18T05:20:50.171Z,62.28
2023-05-18T05:23:18.288Z,62.34
2023-05-18T05:25:46.747Z,62.19
2023-05-18T05:28:14.482Z,61.53
2023-05-18T05:30:42.990Z,61.16
2023-05-18T05:33:10.800Z,61.66
2023-05-18T05:35:39.347Z,60.15
2023-05-18T05:38:07.664Z,60.16
2023-05-18T05:40:36.111Z,59.17
2023-05-18T05:43:05.978Z,58.26
2023-05-18T05:45:33.992Z,57.69
2023-05-18T05:48:05.004Z,57.60
2023-05-18T05:50:32.694Z,57.31
2023-05-18T05:53:02.410Z,57.57
2023-05-18T05:55:41.218Z,57.10
2023-05-18T05:58:12.758Z,56.18
2023-05-18T06:00:43.281Z,56.67
2023-05-18T06:03:11.108Z,55.56
2023-05-18T06:05:42.618Z,55.95
2023-05-18T06:08:12.254Z,55.22
2023-05-18T06:10:41.244Z,54.58
2023-05-18T06:13:09.316Z,53.30
2023-05-18T06:15:45.677Z,54.24
2023-05-18T06:18:13.851Z,53.34
2023-05-18T06:20:41.811Z,54.48
2023-05-18T06:23:09.520Z,54.08
2023-05-18T06:25:49.885Z,53.76
2023-05-18T06:28:27.981Z,53.40
2023-05-18T06:31:15.953Z,54.05
2023-05-18T06:33:50.838Z,52.84
2023-05-18T06:36:18.588Z,53.34
2023-05-18T06:38:46.448Z,52.73
2023-05-18T06:41:14.050Z,52.58
2023-05-18T06:43:41.527Z,52.59
2023-05-18T06:46:26.652Z,52.79
2023-05-18T06:49:01.392Z,52.71
2023-05-18T06:51:29.408Z,52.84
2023-05-18T06:53:57.837Z,51.88
2023-05-18T06:56:26.624Z,50.38
2023-05-18T06:58:55.399Z,50.23
2023-05-18T07:01:23.986Z,51.25
2023-05-18T07:03:52.298Z,50.75
2023-05-18T07:06:20.035Z,49.59
2023-05-18T07:08:48.058Z,48.70
2023-05-18T07:11:15.960Z,50.26
2023-05-18T07:13:43.507Z,50.34
2023-05-18T07:16:11.618Z,49.52
2023-05-18T07:18:39.488Z,49.64
2023-05-18T07:21:07.088Z,49.48
2023-05-18T07:23:34.775Z,48.84
2023-05-18T07:26:02.350Z,49.27
2023-05-18T07:28:30.165Z,49.30
2023-05-18T07:30:57.845Z,48.43
2023-05-18T07:33:25.605Z,48.15
2023-05-18T07:35:53.224Z,47.31
2023-05-18T07:38:20.744Z,47.70
2023-05-18T07:40:48.394Z,46.33
2023-05-18T07:43:16.664Z,46.34
2023-05-18T07:45:44.218Z,45.67
2023-05-18T07:48:11.962Z,45.26
2023-05-18T07:50:40.256Z,44.51
2023-05-18T07:53:07.786Z,45.15
2023-05-18T07:55:35.456Z,44.23
2023-05-18T07:58:02.958Z,44.15
2023-05-18T08:00:31.264Z,43.83
2023-05-18T08:03:00.808Z,43.30
2023-05-18T08:05:28.713Z,42.30
2023-05-18T08:07:56.509Z,42.28
2023-05-18T08:10:24.452Z,41.67
2023-05-18T08:12:52.883Z,40.47
2023-05-18T08:15:20.387Z,39.45
2023-05-18T08:17:48.069Z,39.05
2023-05-18T08:20:17.293Z,38.26
2023-05-18T08:22:44.995Z,39.01
2023-05-18T08:25:12.984Z,37.96
2023-05-18T08:27:40.806Z,37.17
2023-05-18T08:30:08.943Z,37.31
2023-05-18T08:32:37.530Z,37.06
2023-05-18T08:35:06.078Z,37.51
2023-05-18T08:37:34.634Z,36.23
2023-05-18T08:40:02.560Z,37.01
2023-05-18T08:42:48.650Z,35.63
2023-05-18T08:45:24.617Z,36.82
2023-05-18T08:47:52.304Z,36.72
2023-05-18T08:50:24.107Z,36.95
2023-05-18T08:52:54.679Z,36.01
2023-05-18T08:55:23.456Z,36.54
2023-05-18T08:57:56.284Z,35.66
2023-05-18T09:00:24.743Z,35.77
2023-05-18T09:02:52.876Z,34.24
2023-05-18T09:05:21.374Z,34.96
2023-05-18T09:07:50.852Z,34.54
2023-05-18T09:10:19.079Z,32.68
2023-05-18T09:12:47.137Z,33.53
2023-05-18T09:15:15.934Z,33.02
2023-05-18T09:17:44.257Z,33.46
2023-05-18T09:20:12.308Z,33.33
2023-05-18T09:22:40.711Z,33.23
2023-05-18T09:25:09.022Z,30.51
2023-05-18T09:27:37.490Z,30.94
2023-05-18T09:30:06.083Z,30.56
2023-05-18T09:32:34.882Z,31.15
2023-05-18T09:35:06.820Z,31.63
2023-05-18T09:37:34.677Z,30.65
2023-05-18T09:40:09.091Z,30.25
2023-05-18T09:42:43.525Z,31.37
2023-05-18T09:45:23.797Z,29.48
2023-05-18T09:47:51.676Z,30.33
2023-05-18T09:50:21.025Z,30.96
2023-05-18T09:52:49.475Z,29.48
2023-05-18T09:55:20.529Z,29.18
2023-05-18T09:57:49.680Z,29.40
2023-05-18T10:00:19.362Z,31.20
2023-05-18T10:02:49.344Z,30.78
2023-05-18T10:05:23.471Z,30.47
2023-05-18T10:07:51.414Z,30.61
2023-05-18T10:10:20.548Z,31.00
2023-05-18T10:12:51.027Z,30.33
2023-05-18T10:15:21.420Z,29.68
2023-05-18T10:17:51.121Z,30.10
2023-05-18T10:20:20.072Z,30.83
2023-05-18T10:22:48.608Z,30.79
2023-05-18T10:25:22.180Z,30.52
2023-05-18T10:27:50.586Z,29.75
2023-05-18T10:30:18.414Z,31.12
2023-05-18T10:32:46.795Z,31.14
2023-05-18T10:35:14.807Z,30.50
2023-05-18T10:37:47.467Z,30.16
2023-05-18T10:40:15.823Z,30.05
2023-05-18T10:42:44.220Z,29.94
2023-05-18T10:45:12.103Z,29.35
2023-05-18T10:47:42.670Z,29.65
2023-05-18T10:50:10.923Z,29.92
2023-05-18T10:52:38.571Z,29.04
2023-05-18T10:55:07.070Z,29.47
2023-05-18T10:57:40.007Z,28.49
2023-05-18T11:00:10.311Z,28.09
2023-05-18T11:02:40.378Z,28.38
2023-05-18T11:05:11.453Z,29.65
2023-05-18T11:07:39.231Z,29.28
2023-05-18T11:10:11.191Z,28.34
2023-05-18T11:12:38.989Z,29.97
2023-05-18T11:15:07.533Z,29.57
2023-05-18T11:17:35.722Z,29.42
2023-05-18T11:20:06.463Z,29.69
2023-05-18T11:22:59.117Z,29.04
2023-05-18T11:25:26.742Z,27.88
2023-05-18T11:27:56.296Z,29.37
2023-05-18T11:30:31.196Z,29.30
2023-05-18T11:33:17.581Z,29.57
2023-05-18T11:36:04.054Z,29.43
2023-05-18T11:38:52.802Z,30.10
2023-05-18T11:41:36.180Z,29.57
2023-05-18T11:44:15.081Z,29.64
2023-05-18T11:47:02.391Z,27.65
2023-05-18T11:49:49.348Z,28.17
2023-05-18T11:52:23.683Z,27.81
2023-05-18T11:54:53.385Z,27.19
2023-05-18T11:57:24.990Z,27.34
2023-05-18T11:59:57.297Z,27.17
2023-05-18T12:02:26.957Z,27.39
2023-05-18T12:04:56.459Z,28.53
2023-05-18T12:07:28.184Z,27.19
2023-05-18T12:10:00.280Z,27.19
2023-05-18T12:12:28.065Z,27.92
2023-05-18T12:15:01.614Z,27.37
2023-05-18T12:17:41.247Z,26.09
2023-05-18T12:20:11.982Z,27.29
2023-05-18T12:22:40.544Z,26.88
2023-05-18T12:25:08.466Z,27.46
2023-05-18T12:27:44.528Z,26.99
2023-05-18T12:30:14.053Z,28.28
2023-05-18T12:32:46.604Z,28.02
2023-05-18T12:35:14.254Z,27.72
2023-05-18T12:37:45.839Z,26.38
2023-05-18T12:40:14.709Z,26.71
2023-05-18T12:43:03.100Z,27.48
2023-05-18T12:45:32.437Z,27.32
2023-05-18T12:48:07.570Z,28.01
2023-05-18T12:50:37.174Z,27.39
2023-05-18T12:53:05.052Z,27.82
2023-05-18T12:55:34.845Z,27.49
2023-05-18T12:58:07.454Z,28.38
2023-05-18T13:00:36.052Z,27.24
2023-05-18T13:03:16.865Z,28.04
2023-05-18T13:05:45.940Z,27.98
2023-05-18T13:08:22.125Z,28.76
2023-05-18T13:11:01.235Z,28.98
2023-05-18T13:13:37.302Z,29.93
2023-05-18T13:16:05.386Z,28.30
2023-05-18T13:18:33.050Z,28.67
2023-05-18T13:21:00.798Z,29.03
2023-05-18T13:23:29.038Z,28.68
2023-05-18T13:25:58.505Z,27.78
2023-05-18T13:28:26.996Z,27.79
2023-05-18T13:30:54.776Z,29.29
2023-05-18T13:33:23.496Z,28.74
2023-05-18T13:35:51.047Z,29.62
2023-05-18T13:38:18.625Z,28.95
2023-05-18T13:40:47.119Z,29.61
2023-05-18T13:43:15.018Z,27.99
2023-05-18T13:45:43.060Z,28.83
2023-05-18T13:48:11.377Z,29.28
2023-05-18T13:50:39.697Z,29.09
2023-05-18T13:53:07.754Z,28.99
2023-05-18T13:55:35.893Z,28.95
2023-05-18T13:58:03.529Z,28.50
2023-05-18T14:00:33.612Z,29.07
2023-05-18T14:03:01.852Z,28.78
2023-05-18T14:05:29.541Z,29.02
2023-05-18T14:07:57.328Z,28.64
2023-05-18T14:10:24.912Z,28.36
2023-05-18T14:12:52.629Z,28.73
2023-05-18T14:15:20.175Z,28.35
2023-05-18T14:17:48.326Z,28.12
2023-05-18T14:20:16.470Z,28.32
2023-05-18T14:22:44.228Z,28.23
2023-05-18T14:25:11.894Z,28.56
2023-05-18T14:27:39.650Z,28.67
2023-05-18T14:30:08.067Z,28.65
2023-05-18T14:32:36.031Z,28.61
2023-05-18T14:35:04.297Z,28.67
2023-05-18T14:37:33.065Z,28.98
2023-05-18T14:40:00.715Z,28.57
2023-05-18T14:42:28.432Z,28.51
2023-05-18T14:44:56.215Z,27.95
2023-05-18T14:47:23.830Z,28.45
2023-05-18T14:49:51.452Z,28.47
2023-05-18T14:52:19.437Z,29.20
2023-05-18T14:54:47.926Z,28.40
2023-05-18T14:57:15.475Z,28.77
2023-05-18T14:59:43.666Z,28.92
2023-05-18T15:02:11.336Z,28.03
2023-05-18T15:04:38.924Z,28.83
2023-05-18T15:07:06.776Z,28.32
2023-05-18T15:09:34.397Z,28.27
2023-05-18T15:12:01.992Z,28.99
2023-05-18T15:14:30.006Z,28.08
2023-05-18T15:16:58.754Z,28.77
2023-05-18T15:19:26.456Z,28.45
2023-05-18T15:21:54.315Z,28.21
2023-05-18T15:24:22.069Z,29.01
2023-05-18T15:26:49.752Z,28.33
2023-05-18T15:29:17.704Z,28.51
2023-05-18T15:31:45.685Z,28.78
2023-05-18T15:34:13.250Z,28.42
2023-05-18T15:36:41.251Z,29.14
2023-05-18T15:39:09.426Z,29.35
2023-05-18T15:41:37.065Z,29.34
2023-05-18T15:44:04.782Z,28.94
2023-05-18T15:46:35.156Z,29.47
2023-05-18T15:49:02.986Z,28.94
2023-05-18T15:51:31.352Z,29.60
2023-05-18T15:53:58.885Z,29.77
2023-05-18T15:56:26.513Z,28.88
2023-05-18T15:58:54.032Z,29.23
2023-05-18T16:01:21.606Z,28.76
2023-05-18T16:03:49.264Z,29.16
2023-05-18T16:06:17.454Z,29.14
2023-05-18T16:08:46.079Z,29.16
2023-05-18T16:11:13.712Z,29.93
2023-05-18T16:13:41.978Z,29.56
2023-05-18T16:16:10.517Z,29.84
2023-05-18T16:18:38.269Z,29.79
2023-05-18T16:21:06.018Z,29.76
2023-05-18T16:23:33.846Z,30.06
2023-05-18T16:26:05.268Z,29.98
2023-05-18T16:28:33.015Z,30.17
2023-05-18T16:31:00.926Z,30.44
2023-05-18T16:33:28.541Z,30.37
2023-05-18T16:35:58.359Z,30.49
2023-05-18T16:38:26.049Z,30.55
2023-05-18T16:40:53.925Z,30.85
2023-05-18T16:43:21.734Z,31.45
2023-05-18T16:45:49.288Z,31.19
2023-05-18T16:48:17.019Z,31.53
2023-05-18T16:50:44.604Z,31.62
2023-05-18T16:53:12.420Z,31.37
2023-05-18T16:55:39.954Z,32.16
2023-05-18T16:58:07.606Z,32.25
2023-05-18T17:00:35.219Z,31.73
2023-05-18T17:03:05.612Z,32.08
2023-05-18T17:05:34.698Z,32.76
2023-05-18T17:08:02.378Z,32.60
2023-05-18T17:10:32.061Z,32.77
2023-05-18T17:12:59.985Z,33.01
2023-05-18T17:15:27.919Z,32.88
2023-05-18T17:17:55.589Z,33.35
2023-05-18T17:20:23.159Z,33.41
2023-05-18T17:22:50.867Z,33.61
2023-05-18T17:25:18.643Z,33.62
2023-05-18T17:27:47.491Z,33.74
2023-05-18T17:30:15.593Z,33.48
2023-05-18T17:32:45.605Z,34.01
2023-05-18T17:35:14.385Z,33.94
2023-05-18T17:37:42.507Z,34.58
2023-05-18T17:40:11.020Z,34.89
2023-05-18T17:42:38.701Z,34.79
2023-05-18T17:45:06.562Z,34.65
2023-05-18T17:47:34.454Z,34.68
2023-05-18T17:50:02.092Z,34.89
2023-05-18T17:52:30.033Z,35.47
2023-05-18T17:54:57.723Z,35.60
2023-05-18T17:57:25.285Z,35.59
2023-05-18T17:59:53.109Z,35.51
2023-05-18T18:02:20.584Z,35.19
2023-05-18T18:04:48.934Z,35.53
2023-05-18T18:07:16.777Z,35.83
2023-05-18T18:09:44.318Z,36.13
2023-05-18T18:12:11.831Z,36.43
2023-05-18T18:14:39.605Z,36.57
2023-05-18T18:17:07.237Z,36.69
2023-05-18T18:19:35.049Z,36.94
2023-05-18T18:22:04.412Z,36.96
2023-05-18T18:24:32.737Z,37.22
2023-05-18T18:27:01.228Z,37.43
2023-05-18T18:29:31.180Z,37.76
2023-05-18T18:31:58.802Z,37.88
2023-05-18T18:34:26.290Z,38.02
2023-05-18T18:36:53.930Z,38.11
2023-05-18T18:39:21.706Z,38.32
2023-05-18T18:41:49.458Z,38.11
2023-05-18T18:44:17.052Z,38.54
2023-05-18T18:46:45.204Z,38.65
2023-05-18T18:49:12.721Z,39.06
2023-05-18T18:51:40.518Z,39.03
2023-05-18T18:54:08.076Z,39.14
2023-05-18T18:56:35.952Z,39.00
2023-05-18T18:59:03.465Z,39.23
2023-05-18T19:01:31.486Z,39.58
2023-05-18T19:03:59.125Z,39.76
2023-05-18T19:06:27.320Z,39.92
2023-05-18T19:08:54.984Z,40.05
2023-05-18T19:11:23.988Z,39.98
2023-05-18T19:13:51.767Z,39.98
2023-05-18T19:16:19.548Z,40.69
2023-05-18T19:18:47.423Z,40.49
2023-05-18T19:21:15.232Z,40.27
2023-05-18T19:23:42.888Z,40.92
2023-05-18T19:26:10.567Z,40.66
2023-05-18T19:28:38.341Z,40.78
2023-05-18T19:31:05.947Z,41.17
2023-05-18T19:33:33.794Z,41.05
2023-05-18T19:36:01.430Z,40.96
2023-05-18T19:38:29.096Z,41.55
2023-05-18T19:40:56.568Z,41.46
2023-05-18T19:43:24.080Z,41.46
2023-05-18T19:45:51.888Z,41.46
2023-05-18T19:48:19.716Z,41.45
2023-05-18T19:50:47.592Z,41.39
2023-05-18T19:53:15.971Z,41.65
2023-05-18T19:55:43.520Z,41.81
2023-05-18T19:58:11.008Z,41.56
2023-05-18T20:00:41.331Z,41.98
2023-05-18T20:03:09.517Z,42.13
2023-05-18T20:05:37.538Z,41.93
2023-05-18T20:08:07.510Z,41.96
2023-05-18T20:10:35.119Z,41.91
2023-05-18T20:13:02.970Z,42.55
2023-05-18T20:15:32.532Z,42.25
2023-05-18T20:18:01.951Z,42.27
2023-05-18T20:20:30.832Z,42.56
2023-05-18T20:22:59.421Z,42.48
2023-05-18T20:25:27.998Z,43.20
2023-05-18T20:28:00.851Z,42.33
2023-05-18T20:30:28.759Z,42.68
2023-05-18T20:32:58.880Z,42.68
2023-05-18T20:35:26.694Z,42.56
2023-05-18T20:37:55.977Z,42.71
2023-05-18T20:40:23.810Z,43.45
2023-05-18T20:42:54.250Z,43.60
2023-05-18T20:45:22.414Z,43.17
2023-05-18T20:47:50.918Z,43.52
2023-05-18T20:50:18.853Z,43.39
2023-05-18T20:52:46.605Z,43.40
2023-05-18T20:55:14.954Z,43.49
2023-05-18T20:57:44.773Z,43.71
2023-05-18T21:00:13.035Z,43.40
2023-05-18T21:02:48.520Z,43.59
2023-05-18T21:05:16.705Z,43.10
2023-05-18T21:07:44.404Z,43.34
2023-05-18T21:10:12.105Z,43.18
2023-05-18T21:12:40.340Z,43.95
2023-05-18T21:15:08.398Z,43.73
2023-05-18T21:17:37.784Z,44.61
2023-05-18T21:20:05.942Z,44.20
2023-05-18T21:22:33.759Z,44.16
2023-05-18T21:25:01.563Z,44.32
2023-05-18T21:27:29.434Z,44.67
2023-05-18T21:29:56.997Z,44.72
2023-05-18T21:32:24.896Z,45.24
2023-05-18T21:34:52.543Z,45.34
2023-05-18T21:37:21.284Z,45.51
2023-05-18T21:39:48.766Z,45.42
2023-05-18T21:42:16.220Z,45.91
2023-05-18T21:44:43.951Z,45.77
2023-05-18T21:47:11.456Z,46.34
2023-05-18T21:49:39.214Z,47.12
2023-05-18T21:52:06.965Z,46.87
2023-05-18T21:54:35.545Z,47.24
2023-05-18T21:57:03.051Z,47.54
2023-05-18T21:59:30.710Z,47.32
2023-05-18T22:01:58.339Z,47.45
2023-05-18T22:04:25.918Z,47.63
2023-05-18T22:06:54.417Z,48.06
2023-05-18T22:09:21.995Z,48.27
2023-05-18T22:11:49.747Z,48.30
2023-05-18T22:14:18.096Z,48.15
2023-05-18T22:16:46.583Z,48.20
2023-05-18T22:19:14.388Z,48.24
2023-05-18T22:21:42.026Z,48.17
2023-05-18T22:24:09.550Z,48.38
2023-05-18T22:26:37.357Z,48.31
2023-05-18T22:29:04.934Z,48.28
2023-05-18T22:31:32.925Z,48.60
2023-05-18T22:34:00.899Z,48.54
2023-05-18T22:36:29.557Z,48.66
2023-05-18T22:38:57.727Z,49.20
2023-05-18T22:41:25.267Z,49.11
2023-05-18T22:43:52.893Z,49.05
2023-05-18T22:46:20.477Z,49.23
2023-05-18T22:48:48.149Z,49.28
2023-05-18T22:51:15.808Z,49.39
2023-05-18T22:53:43.345Z,49.46
2023-05-18T22:56:11.161Z,49.63
2023-05-18T22:58:39.003Z,49.69
2023-05-18T23:01:06.606Z,49.85
2023-05-18T23:03:35.265Z,49.92
2023-05-18T23:06:03.278Z,50.02
2023-05-18T23:08:31.472Z,50.13
2023-05-18T23:10:59.262Z,50.59
2023-05-18T23:13:27.113Z,50.56
2023-05-18T23:15:56.288Z,50.69
2023-05-18T23:18:26.684Z,50.88
2023-05-18T23:20:58.709Z,50.90
2023-05-18T23:23:26.755Z,50.96
2023-05-18T23:25:54.775Z,50.95
2023-05-18T23:28:22.282Z,51.32
2023-05-18T23:30:49.938Z,51.64
2023-05-18T23:33:17.864Z,51.50
2023-05-18T23:35:46.667Z,51.61
2023-05-18T23:38:18.444Z,52.04
2023-05-18T23:40:46.253Z,51.57
2023-05-18T23:43:14.014Z,51.64
2023-05-18T23:45:41.878Z,51.57
2023-05-18T23:48:10.392Z,51.42
2023-05-18T23:50:38.673Z,51.94
2023-05-18T23:53:06.339Z,51.19
2023-05-18T23:55:34.469Z,51.27
2023-05-18T23:58:02.473Z,51.10
